createdAt,value
2023-03-29T00:00:05.854Z,7.39
2023-03-29T00:01:05.868Z,7.28
2023-03-29T00:02:05.931Z,7.34
2023-03-29T00:03:05.975Z,7.40
2023-03-29T00:04:06.156Z,7.31
2023-03-29T00:05:05.949Z,7.30
2023-03-29T00:06:05.973Z,7.28
2023-03-29T00:07:06.009Z,7.31
2023-03-29T00:08:06.012Z,7.34
2023-03-29T00:09:06.138Z,7.32
2023-03-29T00:10:06.051Z,7.42
2023-03-29T00:11:06.070Z,7.32
2023-03-29T00:12:06.092Z,7.32
2023-03-29T00:13:06.111Z,7.32
2023-03-29T00:14:06.128Z,7.21
2023-03-29T00:15:06.148Z,7.20
2023-03-29T00:16:06.169Z,7.12
2023-03-29T00:17:06.277Z,7.21
2023-03-29T00:18:06.232Z,7.12
2023-03-29T00:19:06.237Z,7.13
2023-03-29T00:20:06.266Z,7.16
2023-03-29T00:21:06.282Z,7.16
2023-03-29T00:22:06.306Z,7.17
2023-03-29T00:23:06.341Z,7.12
2023-03-29T00:24:06.342Z,7.10
2023-03-29T00:25:06.350Z,7.09
2023-03-29T00:26:07.901Z,7.12
2023-03-29T00:27:06.399Z,7.02
2023-03-29T00:28:06.414Z,7.07
2023-03-29T00:29:06.434Z,7.09
2023-03-29T00:30:06.460Z,7.09
2023-03-29T00:31:06.576Z,7.07
2023-03-29T00:32:06.524Z,6.92
2023-03-29T00:33:06.560Z,6.89
2023-03-29T00:34:06.539Z,6.99
2023-03-29T00:35:06.571Z,7.16
2023-03-29T00:36:06.622Z,6.89
2023-03-29T00:37:06.594Z,7.09
2023-03-29T00:38:06.613Z,6.94
2023-03-29T00:39:06.640Z,7.05
2023-03-29T00:40:06.655Z,6.92
2023-03-29T00:41:06.678Z,7.03
2023-03-29T00:42:06.696Z,7.06
2023-03-29T00:43:06.712Z,7.07
2023-03-29T00:44:06.737Z,7.03
2023-03-29T00:45:06.769Z,6.94
2023-03-29T00:46:06.836Z,6.94
2023-03-29T00:47:06.794Z,6.92
2023-03-29T00:48:06.841Z,7.02
2023-03-29T00:49:06.835Z,6.97
2023-03-29T00:50:06.861Z,6.98
2023-03-29T00:51:08.806Z,6.91
2023-03-29T00:52:06.895Z,6.89
2023-03-29T00:53:06.912Z,6.92
2023-03-29T00:54:06.946Z,6.88
2023-03-29T00:55:06.952Z,6.84
2023-03-29T00:56:07.009Z,6.97
2023-03-29T00:57:07.076Z,6.84
2023-03-29T00:58:07.014Z,6.91
2023-03-29T00:59:07.036Z,6.79
2023-03-29T01:00:07.054Z,6.81
2023-03-29T01:01:07.082Z,6.80
2023-03-29T01:02:07.202Z,6.88
2023-03-29T01:03:07.182Z,6.77
2023-03-29T01:04:07.149Z,6.67
2023-03-29T01:05:07.155Z,6.73
2023-03-29T01:06:07.174Z,6.69
2023-03-29T01:07:07.395Z,6.71
2023-03-29T01:08:07.224Z,6.71
2023-03-29T01:09:07.232Z,6.71
2023-03-29T01:10:07.267Z,6.77
2023-03-29T01:11:07.294Z,6.80
2023-03-29T01:12:07.291Z,6.79
2023-03-29T01:13:07.323Z,6.76
2023-03-29T01:14:07.338Z,6.84
2023-03-29T01:15:07.353Z,6.77
2023-03-29T01:16:07.401Z,6.80
2023-03-29T01:17:07.394Z,6.74
2023-03-29T01:18:07.437Z,6.70
2023-03-29T01:19:07.431Z,6.71
2023-03-29T01:20:07.450Z,6.74
2023-03-29T01:21:07.473Z,6.77
2023-03-29T01:22:07.490Z,6.81
2023-03-29T01:23:07.510Z,6.77
2023-03-29T01:24:07.534Z,6.74
2023-03-29T01:25:07.555Z,6.76
2023-03-29T01:26:07.573Z,6.77
2023-03-29T01:27:07.594Z,6.74
2023-03-29T01:28:07.609Z,6.74
2023-03-29T01:29:07.634Z,6.80
2023-03-29T01:30:07.657Z,6.80
2023-03-29T01:31:07.676Z,6.81
2023-03-29T01:32:07.791Z,6.76
2023-03-29T01:33:07.848Z,6.79
2023-03-29T01:34:07.745Z,6.76
2023-03-29T01:35:07.759Z,6.67
2023-03-29T01:36:07.839Z,6.73
2023-03-29T01:37:07.796Z,6.74
2023-03-29T01:38:07.807Z,6.73
2023-03-29T01:39:07.827Z,6.67
2023-03-29T01:40:07.850Z,6.62
2023-03-29T01:41:07.903Z,6.73
2023-03-29T01:42:07.887Z,6.71
2023-03-29T01:43:07.921Z,6.62
2023-03-29T01:44:07.930Z,6.73
2023-03-29T01:45:07.959Z,6.64
2023-03-29T01:46:08.084Z,6.66
2023-03-29T01:47:07.985Z,6.66
2023-03-29T01:48:08.020Z,6.59
2023-03-29T01:49:08.028Z,6.66
2023-03-29T01:50:08.050Z,6.59
2023-03-29T01:51:08.063Z,6.55
2023-03-29T01:52:08.090Z,6.64
2023-03-29T01:53:08.119Z,6.55
2023-03-29T01:54:08.126Z,6.37
2023-03-29T01:55:08.144Z,6.49
2023-03-29T01:56:08.160Z,6.48
2023-03-29T01:57:08.220Z,6.49
2023-03-29T01:58:08.201Z,6.52
2023-03-29T01:59:08.235Z,6.54
2023-03-29T02:00:08.253Z,6.48
2023-03-29T02:01:08.287Z,6.52
2023-03-29T02:02:08.346Z,6.51
2023-03-29T02:03:08.393Z,6.46
2023-03-29T02:04:08.317Z,6.43
2023-03-29T02:05:08.342Z,6.46
2023-03-29T02:06:08.360Z,6.54
2023-03-29T02:07:08.390Z,6.51
2023-03-29T02:08:08.404Z,6.43
2023-03-29T02:09:08.439Z,6.44
2023-03-29T02:10:08.443Z,6.49
2023-03-29T02:11:08.484Z,6.38
2023-03-29T02:12:08.472Z,6.38
2023-03-29T02:13:08.492Z,6.49
2023-03-29T02:14:08.516Z,6.33
2023-03-29T02:15:08.543Z,6.44
2023-03-29T02:16:08.627Z,6.46
2023-03-29T02:17:08.575Z,6.44
2023-03-29T02:18:08.673Z,6.33
2023-03-29T02:19:08.611Z,6.33
2023-03-29T02:20:08.636Z,6.38
2023-03-29T02:21:08.651Z,6.31
2023-03-29T02:22:08.671Z,6.30
2023-03-29T02:23:08.687Z,6.36
2023-03-29T02:24:08.708Z,6.46
2023-03-29T02:25:08.739Z,6.38
2023-03-29T02:26:08.764Z,6.48
2023-03-29T02:27:08.772Z,6.41
2023-03-29T02:28:08.784Z,6.44
2023-03-29T02:29:08.806Z,6.55
2023-03-29T02:30:08.832Z,6.58
2023-03-29T02:31:08.880Z,6.51
2023-03-29T02:32:08.865Z,6.62
2023-03-29T02:33:08.957Z,6.59
2023-03-29T02:34:08.901Z,6.62
2023-03-29T02:35:08.930Z,6.70
2023-03-29T02:36:08.950Z,6.70
2023-03-29T02:37:08.963Z,6.71
2023-03-29T02:38:09.043Z,6.73
2023-03-29T02:39:09.016Z,6.67
2023-03-29T02:40:09.022Z,6.70
2023-03-29T02:41:09.040Z,6.70
2023-03-29T02:42:09.060Z,6.69
2023-03-29T02:43:09.088Z,6.79
2023-03-29T02:44:09.098Z,6.74
2023-03-29T02:45:09.126Z,6.76
2023-03-29T02:46:09.171Z,6.76
2023-03-29T02:47:09.173Z,6.76
2023-03-29T02:48:09.247Z,6.64
2023-03-29T02:49:09.203Z,6.71
2023-03-29T02:50:09.225Z,6.67
2023-03-29T02:51:09.243Z,6.70
2023-03-29T02:52:09.263Z,6.59
2023-03-29T02:53:09.287Z,6.70
2023-03-29T02:54:09.300Z,6.74
2023-03-29T02:55:09.318Z,6.69
2023-03-29T02:56:09.344Z,6.61
2023-03-29T02:57:09.433Z,6.69
2023-03-29T02:58:09.394Z,6.67
2023-03-29T02:59:09.399Z,6.69
2023-03-29T03:00:09.425Z,6.59
2023-03-29T03:01:09.452Z,6.69
2023-03-29T03:02:09.496Z,6.69
2023-03-29T03:03:09.566Z,6.59
2023-03-29T03:04:09.617Z,6.56
2023-03-29T03:05:09.520Z,6.55
2023-03-29T03:06:09.541Z,6.58
2023-03-29T03:07:09.556Z,6.64
2023-03-29T03:08:09.582Z,6.58
2023-03-29T03:09:09.598Z,6.54
2023-03-29T03:10:09.630Z,6.54
2023-03-29T03:11:09.635Z,6.52
2023-03-29T03:12:09.662Z,6.52
2023-03-29T03:13:09.677Z,6.52
2023-03-29T03:14:09.699Z,6.48
2023-03-29T03:15:09.715Z,6.61
2023-03-29T03:16:09.774Z,6.55
2023-03-29T03:17:09.765Z,6.46
2023-03-29T03:18:09.816Z,6.52
2023-03-29T03:19:09.794Z,6.46
2023-03-29T03:20:09.816Z,6.51
2023-03-29T03:21:09.831Z,6.52
2023-03-29T03:22:09.858Z,6.49
2023-03-29T03:23:09.867Z,6.49
2023-03-29T03:24:09.892Z,6.51
2023-03-29T03:25:09.908Z,6.51
2023-03-29T03:26:09.928Z,6.46
2023-03-29T03:27:09.945Z,6.51
2023-03-29T03:28:09.972Z,6.48
2023-03-29T03:29:10.000Z,6.61
2023-03-29T03:30:10.007Z,6.56
2023-03-29T03:31:10.055Z,6.48
2023-03-29T03:32:10.083Z,6.64
2023-03-29T03:33:10.064Z,6.56
2023-03-29T03:34:10.083Z,6.67
2023-03-29T03:35:10.102Z,6.62
2023-03-29T03:36:10.194Z,6.54
2023-03-29T03:37:10.156Z,6.64
2023-03-29T03:38:10.162Z,6.55
2023-03-29T03:39:10.179Z,6.55
2023-03-29T03:40:10.216Z,6.56
2023-03-29T03:41:10.219Z,6.58
2023-03-29T03:42:10.244Z,6.64
2023-03-29T03:43:10.277Z,6.69
2023-03-29T03:44:10.287Z,6.70
2023-03-29T03:45:10.298Z,6.66
2023-03-29T03:46:10.354Z,6.55
2023-03-29T03:47:10.335Z,6.54
2023-03-29T03:48:10.399Z,6.66
2023-03-29T03:49:10.386Z,6.58
2023-03-29T03:50:10.396Z,6.64
2023-03-29T03:51:10.414Z,6.66
2023-03-29T03:52:10.437Z,6.70
2023-03-29T03:53:10.453Z,6.76
2023-03-29T03:54:10.472Z,6.87
2023-03-29T03:55:10.490Z,6.80
2023-03-29T03:56:10.513Z,6.84
2023-03-29T03:57:10.614Z,6.88
2023-03-29T03:58:10.556Z,6.88
2023-03-29T03:59:10.576Z,6.85
2023-03-29T04:00:10.590Z,6.91
2023-03-29T04:01:10.620Z,6.92
2023-03-29T04:02:10.661Z,6.92
2023-03-29T04:03:10.822Z,6.94
2023-03-29T04:04:10.765Z,6.94
2023-03-29T04:05:10.689Z,6.94
2023-03-29T04:06:10.713Z,6.94
2023-03-29T04:07:10.731Z,6.87
2023-03-29T04:08:10.752Z,6.89
2023-03-29T04:09:10.791Z,6.97
2023-03-29T04:10:10.808Z,6.88
2023-03-29T04:11:10.807Z,6.95
2023-03-29T04:12:10.828Z,6.98
2023-03-29T04:13:10.852Z,7.03
2023-03-29T04:14:10.898Z,6.89
2023-03-29T04:15:10.886Z,6.94
2023-03-29T04:16:11.017Z,6.98
2023-03-29T04:17:10.940Z,6.95
2023-03-29T04:18:11.029Z,7.03
2023-03-29T04:19:10.966Z,7.02
2023-03-29T04:20:10.987Z,7.02
2023-03-29T04:21:11.004Z,6.94
2023-03-29T04:22:11.029Z,6.92
2023-03-29T04:23:11.051Z,7.05
2023-03-29T04:24:11.069Z,7.03
2023-03-29T04:25:11.088Z,6.94
2023-03-29T04:26:11.128Z,6.98
2023-03-29T04:27:11.136Z,6.92
2023-03-29T04:28:11.152Z,7.05
2023-03-29T04:29:11.174Z,6.99
2023-03-29T04:30:11.192Z,6.95
2023-03-29T04:31:11.259Z,6.95
2023-03-29T04:32:11.234Z,7.05
2023-03-29T04:33:11.311Z,7.06
2023-03-29T04:34:11.276Z,7.06
2023-03-29T04:35:11.302Z,7.07
2023-03-29T04:36:11.347Z,7.07
2023-03-29T04:37:11.333Z,7.02
2023-03-29T04:38:11.355Z,7.03
2023-03-29T04:39:11.373Z,7.02
2023-03-29T04:40:11.392Z,7.05
2023-03-29T04:41:11.409Z,7.06
2023-03-29T04:42:11.436Z,7.05
2023-03-29T04:43:11.451Z,7.05
2023-03-29T04:44:11.470Z,7.07
2023-03-29T04:45:11.521Z,7.03
2023-03-29T04:46:11.521Z,7.10
2023-03-29T04:47:11.531Z,7.07
2023-03-29T04:48:11.616Z,7.10
2023-03-29T04:49:11.582Z,7.06
2023-03-29T04:50:11.604Z,7.09
2023-03-29T04:51:11.664Z,7.12
2023-03-29T04:52:11.636Z,7.05
2023-03-29T04:53:11.654Z,7.05
2023-03-29T04:54:11.684Z,7.07
2023-03-29T04:55:11.695Z,7.02
2023-03-29T04:56:11.716Z,6.99
2023-03-29T04:57:11.857Z,7.06
2023-03-29T04:58:11.755Z,7.05
2023-03-29T04:59:11.776Z,7.03
2023-03-29T05:00:11.796Z,7.03
2023-03-29T05:01:11.833Z,7.06
2023-03-29T05:02:11.893Z,7.03
2023-03-29T05:03:11.893Z,7.05
2023-03-29T05:04:12.899Z,7.03
2023-03-29T05:05:11.897Z,7.03
2023-03-29T05:06:11.915Z,7.09
2023-03-29T05:07:11.932Z,7.09
2023-03-29T05:08:11.953Z,7.10
2023-03-29T05:09:11.974Z,7.12
2023-03-29T05:10:11.994Z,7.10
2023-03-29T05:11:12.012Z,7.13
2023-03-29T05:12:12.042Z,7.17
2023-03-29T05:13:12.053Z,7.21
2023-03-29T05:14:12.078Z,7.25
2023-03-29T05:15:12.092Z,7.13
2023-03-29T05:16:12.139Z,7.21
2023-03-29T05:17:12.160Z,7.21
2023-03-29T05:18:12.189Z,7.21
2023-03-29T05:19:12.172Z,7.23
2023-03-29T05:20:12.194Z,7.34
2023-03-29T05:21:12.218Z,7.31
2023-03-29T05:22:12.246Z,7.40
2023-03-29T05:23:12.255Z,7.46
2023-03-29T05:24:12.278Z,7.45
2023-03-29T05:25:12.298Z,7.45
2023-03-29T05:26:12.314Z,7.48
2023-03-29T05:27:12.335Z,7.45
2023-03-29T05:28:12.356Z,7.46
2023-03-29T05:29:12.381Z,7.45
2023-03-29T05:30:12.399Z,7.49
2023-03-29T05:31:13.664Z,7.50
2023-03-29T05:32:12.458Z,7.50
2023-03-29T05:33:12.490Z,7.50
2023-03-29T05:34:12.475Z,7.55
2023-03-29T05:35:12.527Z,7.53
2023-03-29T05:36:12.560Z,7.63
2023-03-29T05:37:12.539Z,7.69
2023-03-29T05:38:12.557Z,7.63
2023-03-29T05:39:12.593Z,7.68
2023-03-29T05:40:12.600Z,7.74
2023-03-29T05:41:12.621Z,7.75
2023-03-29T05:42:12.641Z,7.75
2023-03-29T05:43:12.659Z,7.69
2023-03-29T05:44:12.677Z,7.68
2023-03-29T05:45:12.693Z,7.82
2023-03-29T05:46:12.814Z,7.83
2023-03-29T05:47:12.737Z,7.86
2023-03-29T05:48:12.763Z,7.92
2023-03-29T05:49:12.787Z,7.85
2023-03-29T05:50:12.801Z,7.79
2023-03-29T05:51:12.819Z,7.89
2023-03-29T05:52:12.844Z,7.97
2023-03-29T05:53:12.886Z,7.92
2023-03-29T05:54:12.883Z,7.95
2023-03-29T05:55:12.906Z,7.93
2023-03-29T05:56:12.929Z,7.97
2023-03-29T05:57:13.000Z,7.98
2023-03-29T05:58:12.968Z,7.95
2023-03-29T05:59:12.988Z,7.98
2023-03-29T06:00:13.007Z,7.97
2023-03-29T06:01:13.036Z,8.01
2023-03-29T06:02:13.078Z,8.04
2023-03-29T06:03:20.159Z,8.04
2023-03-29T06:04:13.118Z,8.02
2023-03-29T06:05:13.112Z,8.07
2023-03-29T06:06:13.131Z,8.01
2023-03-29T06:07:13.152Z,8.01
2023-03-29T06:08:13.182Z,8.04
2023-03-29T06:09:13.189Z,8.11
2023-03-29T06:10:13.212Z,8.04
2023-03-29T06:11:13.233Z,8.10
2023-03-29T06:12:13.250Z,8.12
2023-03-29T06:13:13.274Z,8.18
2023-03-29T06:14:13.295Z,8.20
2023-03-29T06:15:13.319Z,8.22
2023-03-29T06:16:13.346Z,8.18
2023-03-29T06:17:13.449Z,8.25
2023-03-29T06:18:13.393Z,8.30
2023-03-29T06:19:13.397Z,8.33
2023-03-29T06:20:13.414Z,8.33
2023-03-29T06:21:13.438Z,8.37
2023-03-29T06:22:14.901Z,8.43
2023-03-29T06:23:13.474Z,8.43
2023-03-29T06:24:13.513Z,8.48
2023-03-29T06:25:13.521Z,8.48
2023-03-29T06:26:13.534Z,8.52
2023-03-29T06:27:13.559Z,8.55
2023-03-29T06:28:13.593Z,8.68
2023-03-29T06:29:13.601Z,8.63
2023-03-29T06:30:13.624Z,8.55
2023-03-29T06:31:13.688Z,8.62
2023-03-29T06:32:13.662Z,8.53
2023-03-29T06:33:13.685Z,8.66
2023-03-29T06:34:13.709Z,8.70
2023-03-29T06:35:13.730Z,8.62
2023-03-29T06:36:13.796Z,8.68
2023-03-29T06:37:13.769Z,8.70
2023-03-29T06:38:13.801Z,8.68
2023-03-29T06:39:13.810Z,8.70
2023-03-29T06:40:13.831Z,8.65
2023-03-29T06:41:13.852Z,8.70
2023-03-29T06:42:21.156Z,8.66
2023-03-29T06:43:13.896Z,8.71
2023-03-29T06:44:13.913Z,8.70
2023-03-29T06:45:14.183Z,8.74
2023-03-29T06:46:14.026Z,8.66
2023-03-29T06:47:13.978Z,8.74
2023-03-29T06:48:13.998Z,8.84
2023-03-29T06:49:14.020Z,8.83
2023-03-29T06:50:14.041Z,8.77
2023-03-29T06:51:14.063Z,8.74
2023-03-29T06:52:14.140Z,8.76
2023-03-29T06:53:14.114Z,8.91
2023-03-29T06:54:14.125Z,8.86
2023-03-29T06:55:14.144Z,8.91
2023-03-29T06:56:14.166Z,8.87
2023-03-29T06:57:14.233Z,8.89
2023-03-29T06:58:14.219Z,8.92
2023-03-29T06:59:14.230Z,8.98
2023-03-29T07:00:14.257Z,8.96
2023-03-29T07:01:14.276Z,8.95
2023-03-29T07:02:14.382Z,9.01
2023-03-29T07:03:14.358Z,9.01
2023-03-29T07:04:14.341Z,9.04
2023-03-29T07:05:14.365Z,9.05
2023-03-29T07:06:14.380Z,9.10
2023-03-29T07:07:14.402Z,9.10
2023-03-29T07:08:14.421Z,9.13
2023-03-29T07:09:14.443Z,9.23
2023-03-29T07:10:14.459Z,9.14
2023-03-29T07:11:14.480Z,9.17
2023-03-29T07:12:14.512Z,9.17
2023-03-29T07:13:14.655Z,9.23
2023-03-29T07:14:14.544Z,9.23
2023-03-29T07:15:14.575Z,9.29
2023-03-29T07:16:14.742Z,9.28
2023-03-29T07:17:14.608Z,9.28
2023-03-29T07:18:14.640Z,9.33
2023-03-29T07:19:14.653Z,9.23
2023-03-29T07:20:14.682Z,9.23
2023-03-29T07:21:14.694Z,9.26
2023-03-29T07:22:14.713Z,9.32
2023-03-29T07:23:14.732Z,9.38
2023-03-29T07:24:14.778Z,9.43
2023-03-29T07:25:14.778Z,9.53
2023-03-29T07:26:14.796Z,9.53
2023-03-29T07:27:14.818Z,9.51
2023-03-29T07:28:14.845Z,9.66
2023-03-29T07:29:14.863Z,9.48
2023-03-29T07:30:14.897Z,9.65
2023-03-29T07:31:14.903Z,9.50
2023-03-29T07:32:14.962Z,9.54
2023-03-29T07:33:15.017Z,9.61
2023-03-29T07:34:14.970Z,9.66
2023-03-29T07:35:15.010Z,9.60
2023-03-29T07:36:15.046Z,9.61
2023-03-29T07:37:15.043Z,9.60
2023-03-29T07:38:15.059Z,9.64
2023-03-29T07:39:15.072Z,9.68
2023-03-29T07:40:15.103Z,9.65
2023-03-29T07:41:15.123Z,9.64
2023-03-29T07:42:15.144Z,9.78
2023-03-29T07:43:15.171Z,9.78
2023-03-29T07:44:15.189Z,9.84
2023-03-29T07:45:15.208Z,9.89
2023-03-29T07:46:15.273Z,9.87
2023-03-29T07:47:15.247Z,9.91
2023-03-29T07:48:15.308Z,9.94
2023-03-29T07:49:15.297Z,9.96
2023-03-29T07:50:15.326Z,9.94
2023-03-29T07:51:15.355Z,9.93
2023-03-29T07:52:15.361Z,9.96
2023-03-29T07:53:15.382Z,9.96
2023-03-29T07:54:15.409Z,9.99
2023-03-29T07:55:15.421Z,9.99
2023-03-29T07:56:15.455Z,10.15
2023-03-29T07:57:15.477Z,10.01
2023-03-29T07:58:15.496Z,10.14
2023-03-29T07:59:15.517Z,9.97
2023-03-29T08:00:15.573Z,10.08
2023-03-29T08:01:18.921Z,10.02
2023-03-29T08:02:15.575Z,10.17
2023-03-29T08:03:15.710Z,10.20
2023-03-29T08:04:15.717Z,10.15
2023-03-29T08:05:23.261Z,10.27
2023-03-29T08:06:15.661Z,10.15
2023-03-29T08:07:18.429Z,10.22
2023-03-29T08:08:15.707Z,10.20
2023-03-29T08:09:15.761Z,10.20
2023-03-29T08:10:15.751Z,10.17
2023-03-29T08:11:15.774Z,10.30
2023-03-29T08:12:15.814Z,10.32
2023-03-29T08:13:15.816Z,10.30
2023-03-29T08:14:15.837Z,10.22
2023-03-29T08:15:15.863Z,10.29
2023-03-29T08:16:15.945Z,10.29
2023-03-29T08:17:15.913Z,10.36
2023-03-29T08:18:15.930Z,10.45
2023-03-29T08:19:15.954Z,10.38
2023-03-29T08:20:15.974Z,10.36
2023-03-29T08:21:15.996Z,10.52
2023-03-29T08:22:16.020Z,10.61
2023-03-29T08:23:16.045Z,10.61
2023-03-29T08:24:16.076Z,10.60
2023-03-29T08:25:16.086Z,10.53
2023-03-29T08:26:16.119Z,10.63
2023-03-29T08:27:16.135Z,10.59
2023-03-29T08:28:16.192Z,10.61
2023-03-29T08:29:16.178Z,10.61
2023-03-29T08:30:16.197Z,10.56
2023-03-29T08:31:16.247Z,10.61
2023-03-29T08:32:16.239Z,10.63
2023-03-29T08:33:16.276Z,10.70
2023-03-29T08:34:16.293Z,10.81
2023-03-29T08:35:16.310Z,10.79
2023-03-29T08:36:16.390Z,10.81
2023-03-29T08:37:16.354Z,10.79
2023-03-29T08:38:16.381Z,10.89
2023-03-29T08:39:16.884Z,10.88
2023-03-29T08:40:16.421Z,10.94
2023-03-29T08:41:16.444Z,10.99
2023-03-29T08:42:16.469Z,11.02
2023-03-29T08:43:16.489Z,11.02
2023-03-29T08:44:16.511Z,10.94
2023-03-29T08:45:16.536Z,11.04
2023-03-29T08:46:16.617Z,11.17
2023-03-29T08:47:16.579Z,11.18
2023-03-29T08:48:16.600Z,11.35
2023-03-29T08:49:16.636Z,11.28
2023-03-29T08:50:16.647Z,11.40
2023-03-29T08:51:16.668Z,11.32
2023-03-29T08:52:16.696Z,11.46
2023-03-29T08:53:16.714Z,11.44
2023-03-29T08:54:16.746Z,11.54
2023-03-29T08:55:16.767Z,11.49
2023-03-29T08:56:16.781Z,11.52
2023-03-29T08:57:16.914Z,11.57
2023-03-29T08:58:16.827Z,11.70
2023-03-29T08:59:16.850Z,11.70
2023-03-29T09:00:16.878Z,11.83
2023-03-29T09:01:16.923Z,11.95
2023-03-29T09:02:16.973Z,12.01
2023-03-29T09:03:17.017Z,12.04
2023-03-29T09:04:16.960Z,12.13
2023-03-29T09:05:16.988Z,12.13
2023-03-29T09:06:17.020Z,12.23
2023-03-29T09:07:17.037Z,12.32
2023-03-29T09:08:17.059Z,12.23
2023-03-29T09:09:17.092Z,12.32
2023-03-29T09:10:17.105Z,12.28
2023-03-29T09:11:17.137Z,12.29
2023-03-29T09:12:17.151Z,12.14
2023-03-29T09:13:17.231Z,12.09
2023-03-29T09:14:17.237Z,12.14
2023-03-29T09:15:17.230Z,12.07
2023-03-29T09:16:17.274Z,12.01
2023-03-29T09:17:17.270Z,12.17
2023-03-29T09:18:17.363Z,12.14
2023-03-29T09:19:17.313Z,12.16
2023-03-29T09:20:17.335Z,12.09
2023-03-29T09:21:17.358Z,12.21
2023-03-29T09:22:17.383Z,12.20
2023-03-29T09:23:17.466Z,12.23
2023-03-29T09:24:17.428Z,12.13
2023-03-29T09:25:17.459Z,12.21
2023-03-29T09:26:17.474Z,12.23
2023-03-29T09:27:17.500Z,12.27
2023-03-29T09:28:17.523Z,12.27
2023-03-29T09:29:17.552Z,12.35
2023-03-29T09:30:17.569Z,12.34
2023-03-29T09:31:17.623Z,12.32
2023-03-29T09:32:17.616Z,12.32
2023-03-29T09:33:17.641Z,12.32
2023-03-29T09:34:17.663Z,12.46
2023-03-29T09:35:17.692Z,12.50
2023-03-29T09:36:17.741Z,12.45
2023-03-29T09:37:17.748Z,12.50
2023-03-29T09:38:17.764Z,12.49
2023-03-29T09:39:17.784Z,12.47
2023-03-29T09:40:17.877Z,12.54
2023-03-29T09:41:17.829Z,12.52
2023-03-29T09:42:17.850Z,12.64
2023-03-29T09:43:17.976Z,12.67
2023-03-29T09:44:30.312Z,12.79
2023-03-29T09:45:17.931Z,12.79
2023-03-29T09:46:18.034Z,12.77
2023-03-29T09:47:17.965Z,12.72
2023-03-29T09:48:18.000Z,12.75
2023-03-29T09:49:18.014Z,12.74
2023-03-29T09:50:30.185Z,12.83
2023-03-29T09:51:18.062Z,12.85
2023-03-29T09:52:18.113Z,12.89
2023-03-29T09:53:18.134Z,12.95
2023-03-29T09:54:18.133Z,13.07
2023-03-29T09:55:18.156Z,13.17
2023-03-29T09:56:18.181Z,13.17
2023-03-29T09:57:18.286Z,13.19
2023-03-29T09:58:18.235Z,13.15
2023-03-29T09:59:18.252Z,13.17
2023-03-29T10:00:18.282Z,13.28
2023-03-29T10:01:18.329Z,13.25
2023-03-29T10:02:18.330Z,13.29
2023-03-29T10:03:18.353Z,13.41
2023-03-29T10:04:18.438Z,13.41
2023-03-29T10:05:18.413Z,13.55
2023-03-29T10:06:18.424Z,13.62
2023-03-29T10:07:18.451Z,13.59
2023-03-29T10:08:19.594Z,13.59
2023-03-29T10:09:18.498Z,13.71
2023-03-29T10:10:18.522Z,13.57
2023-03-29T10:11:18.545Z,13.66
2023-03-29T10:12:18.573Z,13.63
2023-03-29T10:13:18.595Z,13.81
2023-03-29T10:14:18.620Z,13.71
2023-03-29T10:15:29.378Z,13.70
2023-03-29T10:16:18.679Z,13.77
2023-03-29T10:17:18.695Z,13.67
2023-03-29T10:18:18.729Z,13.75
2023-03-29T10:19:18.738Z,13.69
2023-03-29T10:20:18.789Z,13.63
2023-03-29T10:21:18.802Z,13.55
2023-03-29T10:22:18.819Z,13.49
2023-03-29T10:23:18.880Z,13.59
2023-03-29T10:24:18.858Z,13.51
2023-03-29T10:25:18.888Z,13.49
2023-03-29T10:26:18.920Z,13.46
2023-03-29T10:27:18.962Z,13.45
2023-03-29T10:28:18.984Z,13.57
2023-03-29T10:29:19.004Z,13.49
2023-03-29T10:30:19.014Z,13.66
2023-03-29T10:31:19.091Z,13.67
2023-03-29T10:32:19.059Z,13.62
2023-03-29T10:33:19.084Z,13.62
2023-03-29T10:34:19.107Z,13.70
2023-03-29T10:35:19.148Z,13.66
2023-03-29T10:36:19.204Z,13.64
2023-03-29T10:37:19.244Z,13.62
2023-03-29T10:38:19.209Z,13.59
2023-03-29T10:39:19.240Z,13.52
2023-03-29T10:40:19.261Z,13.60
2023-03-29T10:41:19.281Z,13.54
2023-03-29T10:42:19.304Z,13.45
2023-03-29T10:43:19.327Z,13.38
2023-03-29T10:44:19.350Z,13.46
2023-03-29T10:45:19.376Z,13.29
2023-03-29T10:46:19.440Z,13.28
2023-03-29T10:47:19.434Z,13.19
2023-03-29T10:48:19.525Z,13.32
2023-03-29T10:49:19.482Z,13.20
2023-03-29T10:50:19.498Z,13.22
2023-03-29T10:51:19.522Z,13.25
2023-03-29T10:52:19.546Z,13.23
2023-03-29T10:53:19.608Z,13.26
2023-03-29T10:54:19.597Z,13.19
2023-03-29T10:55:19.628Z,13.17
2023-03-29T10:56:19.645Z,13.26
2023-03-29T10:57:21.588Z,13.36
2023-03-29T10:58:19.692Z,13.33
2023-03-29T10:59:19.719Z,13.42
2023-03-29T11:00:19.741Z,13.57
2023-03-29T11:01:19.835Z,13.69
2023-03-29T11:02:19.840Z,13.63
2023-03-29T11:03:21.634Z,13.71
2023-03-29T11:04:19.839Z,13.77
2023-03-29T11:05:19.866Z,13.71
2023-03-29T11:06:19.894Z,13.70
2023-03-29T11:07:19.915Z,13.78
2023-03-29T11:08:19.937Z,13.78
2023-03-29T11:09:19.961Z,13.77
2023-03-29T11:10:19.988Z,13.67
2023-03-29T11:11:20.021Z,13.64
2023-03-29T11:12:20.044Z,13.66
2023-03-29T11:13:20.066Z,13.59
2023-03-29T11:14:20.097Z,13.57
2023-03-29T11:15:20.133Z,13.57
2023-03-29T11:16:20.199Z,13.57
2023-03-29T11:17:20.155Z,13.51
2023-03-29T11:18:20.190Z,13.41
2023-03-29T11:19:20.208Z,13.41
2023-03-29T11:20:20.232Z,13.32
2023-03-29T11:21:20.253Z,13.22
2023-03-29T11:22:20.289Z,13.08
2023-03-29T11:23:20.300Z,13.17
2023-03-29T11:24:20.326Z,13.08
2023-03-29T11:25:20.357Z,13.07
2023-03-29T11:26:20.383Z,13.17
2023-03-29T11:27:20.405Z,13.00
2023-03-29T11:28:20.424Z,13.04
2023-03-29T11:29:20.448Z,13.12
2023-03-29T11:30:20.476Z,13.04
2023-03-29T11:31:20.582Z,13.04
2023-03-29T11:32:20.569Z,13.03
2023-03-29T11:33:20.549Z,12.96
2023-03-29T11:34:20.573Z,12.90
2023-03-29T11:35:20.603Z,12.86
2023-03-29T11:36:20.623Z,12.90
2023-03-29T11:37:20.646Z,12.87
2023-03-29T11:38:20.669Z,12.79
2023-03-29T11:39:20.743Z,12.82
2023-03-29T11:40:20.725Z,12.86
2023-03-29T11:41:20.742Z,12.74
2023-03-29T11:42:20.765Z,12.68
2023-03-29T11:43:20.786Z,12.71
2023-03-29T11:44:20.838Z,12.70
2023-03-29T11:45:20.852Z,12.68
2023-03-29T11:46:20.915Z,12.67
2023-03-29T11:47:20.880Z,12.65
2023-03-29T11:48:20.909Z,12.65
2023-03-29T11:49:20.932Z,12.70
2023-03-29T11:50:20.960Z,12.65
2023-03-29T11:51:20.986Z,12.62
2023-03-29T11:52:21.011Z,12.59
2023-03-29T11:53:21.027Z,12.74
2023-03-29T11:54:21.054Z,12.59
2023-03-29T11:55:21.075Z,12.68
2023-03-29T11:56:21.098Z,12.77
2023-03-29T11:57:21.242Z,12.78
2023-03-29T11:58:30.166Z,12.78
2023-03-29T12:00:25.645Z,12.92
2023-03-29T12:01:25.173Z,12.89
2023-03-29T12:03:29.246Z,12.85
2023-03-29T12:04:29.224Z,12.86
2023-03-29T12:06:33.698Z,12.90
2023-03-29T12:07:33.216Z,12.96
2023-03-29T12:08:33.241Z,12.95
2023-03-29T12:09:33.270Z,12.87
2023-03-29T12:10:33.704Z,13.03
2023-03-29T12:11:33.317Z,13.01
2023-03-29T12:12:33.336Z,13.07
2023-03-29T12:13:33.365Z,13.03
2023-03-29T12:14:33.384Z,13.07
2023-03-29T12:15:33.408Z,13.04
2023-03-29T12:16:33.474Z,13.04
2023-03-29T12:17:33.530Z,13.11
2023-03-29T12:18:33.480Z,13.00
2023-03-29T12:19:33.523Z,13.00
2023-03-29T12:20:33.528Z,13.17
2023-03-29T12:21:33.550Z,13.32
2023-03-29T12:22:33.627Z,13.29
2023-03-29T12:23:33.606Z,13.30
2023-03-29T12:24:33.628Z,13.46
2023-03-29T12:25:33.649Z,13.54
2023-03-29T12:26:33.703Z,13.66
2023-03-29T12:27:33.703Z,13.75
2023-03-29T12:28:33.734Z,13.77
2023-03-29T12:29:33.749Z,13.96
2023-03-29T12:30:34.422Z,14.02
2023-03-29T12:31:33.816Z,13.99
2023-03-29T12:32:33.857Z,14.09
2023-03-29T12:33:33.864Z,14.22
2023-03-29T12:34:33.880Z,14.20
2023-03-29T12:35:33.969Z,14.29
2023-03-29T12:36:33.925Z,14.42
2023-03-29T12:37:33.947Z,14.42
2023-03-29T12:38:33.989Z,14.55
2023-03-29T12:39:34.006Z,14.64
2023-03-29T12:40:34.030Z,14.75
2023-03-29T12:41:34.056Z,14.96
2023-03-29T12:42:34.077Z,14.99
2023-03-29T12:43:34.104Z,15.10
2023-03-29T12:44:34.127Z,15.13
2023-03-29T12:45:34.157Z,15.32
2023-03-29T12:46:34.202Z,15.36
2023-03-29T12:47:34.230Z,15.47
2023-03-29T12:48:34.232Z,15.51
2023-03-29T12:49:34.276Z,15.59
2023-03-29T12:50:34.283Z,15.65
2023-03-29T12:51:34.311Z,15.72
2023-03-29T12:52:34.344Z,15.74
2023-03-29T12:53:34.364Z,15.74
2023-03-29T12:54:34.396Z,15.80
2023-03-29T12:55:34.419Z,15.78
2023-03-29T12:56:34.441Z,15.76
2023-03-29T12:57:34.471Z,15.78
2023-03-29T12:58:34.492Z,15.82
2023-03-29T12:59:34.523Z,15.87
2023-03-29T13:00:34.549Z,15.87
2023-03-29T13:01:34.693Z,15.94
2023-03-29T13:02:34.701Z,15.92
2023-03-29T13:03:34.626Z,16.01
2023-03-29T13:04:34.657Z,16.02
2023-03-29T13:05:34.728Z,16.01
2023-03-29T13:06:34.709Z,16.05
2023-03-29T13:07:34.732Z,16.07
2023-03-29T13:08:34.794Z,16.04
2023-03-29T13:09:34.799Z,16.02
2023-03-29T13:10:34.819Z,16.11
2023-03-29T13:11:34.849Z,16.08